sensor_id;sensor_type;location;lat;lon;timestamp;pressure;altitude;pressure_sealevel;temperature;humidity
6565;BME280;3316;44.118;27.258;2023-02-01T00:00:03;101113.19;;;2.73;100.00
6565;BME280;3316;44.118;27.258;2023-02-01T00:02:29;101116.66;;;2.72;100.00
6565;BME280;3316;44.118;27.258;2023-02-01T00:04:54;101109.50;;;2.65;100.00
6565;BME280;3316;44.118;27.258;2023-02-01T00:07:20;101118.66;;;2.83;100.00
6565;BME280;3316;44.118;27.258;2023-02-01T00:09:45;101109.88;;;2.79;100.00
6565;BME280;3316;44.118;27.258;2023-02-01T00:12:11;101083.34;;;2.59;100.00
6565;BME280;3316;44.118;27.258;2023-02-01T00:14:37;101124.69;;;2.82;100.00
6565;BME280;3316;44.118;27.258;2023-02-01T00:17:04;101124.50;;;2.76;100.00
6565;BME280;3316;44.118;27.258;2023-02-01T00:19:31;101127.94;;;2.73;100.00
6565;BME280;3316;44.118;27.258;2023-02-01T00:21:56;101090.91;;;2.52;100.00
6565;BME280;3316;44.118;27.258;2023-02-01T00:24:22;101129.72;;;2.76;100.00
6565;BME280;3316;44.118;27.258;2023-02-01T00:26:47;101121.91;;;2.76;100.00
6565;BME280;3316;44.118;27.258;2023-02-01T00:29:15;101113.13;;;2.70;100.00
6565;BME280;3316;44.118;27.258;2023-02-01T00:31:42;101108.72;;;2.68;100.00
6565;BME280;3316;44.118;27.258;2023-02-01T00:34:10;101115.63;;;2.67;100.00
6565;BME280;3316;44.118;27.258;2023-02-01T00:36:36;101118.09;;;2.63;100.00
6565;BME280;3316;44.118;27.258;2023-02-01T00:39:02;101103.13;;;2.54;100.00
6565;BME280;3316;44.118;27.258;2023-02-01T00:41:27;101099.72;;;2.57;100.00
6565;BME280;3316;44.118;27.258;2023-02-01T00:43:53;101098.91;;;2.59;100.00
6565;BME280;3316;44.118;27.258;2023-02-01T00:46:19;101101.53;;;2.59;100.00
6565;BME280;3316;44.118;27.258;2023-02-01T00:48:45;101102.38;;;2.58;100.00
6565;BME280;3316;44.118;27.258;2023-02-01T00:51:14;101090.91;;;2.52;100.00
6565;BME280;3316;44.118;27.258;2023-02-01T00:53:40;101090.97;;;2.53;100.00
6565;BME280;3316;44.118;27.258;2023-02-01T00:56:06;101093.72;;;2.59;100.00
6565;BME280;3316;44.118;27.258;2023-02-01T00:58:32;101099.78;;;2.58;100.00
6565;BME280;3316;44.118;27.258;2023-02-01T01:01:02;101097.25;;;2.61;100.00
6565;BME280;3316;44.118;27.258;2023-02-01T01:03:29;101097.97;;;2.56;100.00
6565;BME280;3316;44.118;27.258;2023-02-01T01:05:59;101090.13;;;2.54;100.00
6565;BME280;3316;44.118;27.258;2023-02-01T01:08:25;101093.69;;;2.58;100.00
6565;BME280;3316;44.118;27.258;2023-02-01T01:10:50;101090.16;;;2.56;100.00
6565;BME280;3316;44.118;27.258;2023-02-01T01:13:16;101082.34;;;2.54;100.00
6565;BME280;3316;44.118;27.258;2023-02-01T01:15:41;101054.03;;;2.34;100.00
6565;BME280;3316;44.118;27.258;2023-02-01T01:18:07;101087.56;;;2.56;100.00
6565;BME280;3316;44.118;27.258;2023-02-01T01:20:38;101090.44;;;2.65;100.00
6565;BME280;3316;44.118;27.258;2023-02-01T01:23:04;101090.22;;;2.57;100.00
6565;BME280;3316;44.118;27.258;2023-02-01T01:25:30;101099.63;;;2.54;100.00
6565;BME280;3316;44.118;27.258;2023-02-01T01:27:56;101092.69;;;2.53;100.00
6565;BME280;3316;44.118;27.258;2023-02-01T01:30:21;101081.19;;;2.45;100.00
6565;BME280;3316;44.118;27.258;2023-02-01T01:32:47;101093.47;;;2.50;100.00
6565;BME280;3316;44.118;27.258;2023-02-01T01:35:13;101083.59;;;2.39;100.00
6565;BME280;3316;44.118;27.258;2023-02-01T01:37:38;101086.34;;;2.43;100.00
6565;BME280;3316;44.118;27.258;2023-02-01T01:40:06;101086.75;;;2.29;100.00
6565;BME280;3316;44.118;27.258;2023-02-01T01:42:40;101089.28;;;2.26;100.00
6565;BME280;3316;44.118;27.258;2023-02-01T01:47:41;101100.63;;;2.29;100.00
6565;BME280;3316;44.118;27.258;2023-02-01T01:50:10;101102.97;;;2.20;100.00
6565;BME280;3316;44.118;27.258;2023-02-01T01:52:39;101094.06;;;2.12;100.00
6565;BME280;3316;44.118;27.258;2023-02-01T01:55:06;101101.09;;;2.16;100.00
6565;BME280;3316;44.118;27.258;2023-02-01T01:57:39;101101.88;;;2.14;100.00
6565;BME280;3316;44.118;27.258;2023-02-01T02:00:12;101091.31;;;2.08;100.00
6565;BME280;3316;44.118;27.258;2023-02-01T02:02:40;101097.50;;;2.13;100.00
6565;BME280;3316;44.118;27.258;2023-02-01T02:05:07;101054.56;;;1.94;100.00
6565;BME280;3316;44.118;27.258;2023-02-01T02:07:36;101080.03;;;2.07;100.00
6565;BME280;3316;44.118;27.258;2023-02-01T02:10:08;101062.53;;;2.00;100.00
6565;BME280;3316;44.118;27.258;2023-02-01T02:12:38;101076.44;;;2.02;100.00
6565;BME280;3316;44.118;27.258;2023-02-01T02:15:05;101088.94;;;2.15;100.00
6565;BME280;3316;44.118;27.258;2023-02-01T02:17:57;101084.28;;;2.05;100.00
6565;BME280;3316;44.118;27.258;2023-02-01T02:20:59;101092.91;;;2.03;100.00
6565;BME280;3316;44.118;27.258;2023-02-01T02:29:15;101107.22;;;1.92;100.00
6565;BME280;3316;44.118;27.258;2023-02-01T02:32:16;101103.81;;;1.93;100.00
6565;BME280;3316;44.118;27.258;2023-02-01T02:34:53;101101.94;;;1.89;100.00
6565;BME280;3316;44.118;27.258;2023-02-01T02:40:12;101106.25;;;1.88;100.00
6565;BME280;3316;44.118;27.258;2023-02-01T02:43:17;101103.66;;;1.88;100.00
6565;BME280;3316;44.118;27.258;2023-02-01T02:49:18;101097.25;;;1.77;100.00
6565;BME280;3316;44.118;27.258;2023-02-01T02:52:07;101110.22;;;1.77;100.00
6565;BME280;3316;44.118;27.258;2023-02-01T02:54:54;101113.50;;;1.71;100.00
6565;BME280;3316;44.118;27.258;2023-02-01T02:57:34;101093.50;;;1.67;100.00
6565;BME280;3316;44.118;27.258;2023-02-01T03:00:22;101099.59;;;1.69;100.00
6565;BME280;3316;44.118;27.258;2023-02-01T03:03:07;101099.44;;;1.65;100.00
6565;BME280;3316;44.118;27.258;2023-02-01T03:05:51;101105.44;;;1.64;100.00
6565;BME280;3316;44.118;27.258;2023-02-01T03:08:25;101097.59;;;1.61;100.00
6565;BME280;3316;44.118;27.258;2023-02-01T03:13:43;101093.97;;;1.56;100.00
6565;BME280;3316;44.118;27.258;2023-02-01T03:22:07;101066.13;;;1.25;100.00
6565;BME280;3316;44.118;27.258;2023-02-01T03:24:42;101092.28;;;1.33;100.00
6565;BME280;3316;44.118;27.258;2023-02-01T03:27:23;101090.00;;;1.40;100.00
6565;BME280;3316;44.118;27.258;2023-02-01T03:32:22;101093.22;;;1.35;100.00
6565;BME280;3316;44.118;27.258;2023-02-01T03:34:48;101094.78;;;1.30;100.00
6565;BME280;3316;44.118;27.258;2023-02-01T03:37:21;101088.50;;;1.23;100.00
6565;BME280;3316;44.118;27.258;2023-02-01T03:40:00;101097.09;;;1.21;100.00
6565;BME280;3316;44.118;27.258;2023-02-01T03:42:37;101090.97;;;1.19;100.00
6565;BME280;3316;44.118;27.258;2023-02-01T03:45:11;101087.44;;;1.17;100.00
6565;BME280;3316;44.118;27.258;2023-02-01T03:47:42;101082.13;;;1.14;100.00
6565;BME280;3316;44.118;27.258;2023-02-01T03:50:11;101090.09;;;1.18;100.00
6565;BME280;3316;44.118;27.258;2023-02-01T03:55:27;101086.50;;;1.15;100.00
6565;BME280;3316;44.118;27.258;2023-02-01T03:58:09;101102.41;;;1.25;100.00
6565;BME280;3316;44.118;27.258;2023-02-01T04:00:37;101093.06;;;1.29;100.00
6565;BME280;3316;44.118;27.258;2023-02-01T04:03:07;101099.03;;;1.28;100.00
6565;BME280;3316;44.118;27.258;2023-02-01T04:05:33;101097.19;;;1.24;100.00
6565;BME280;3316;44.118;27.258;2023-02-01T04:07:58;101103.50;;;1.32;100.00
6565;BME280;3316;44.118;27.258;2023-02-01T04:10:24;101097.44;;;1.31;100.00
6565;BME280;3316;44.118;27.258;2023-02-01T04:12:49;101090.47;;;1.29;100.00
6565;BME280;3316;44.118;27.258;2023-02-01T04:15:15;101107.25;;;1.40;100.00
6565;BME280;3316;44.118;27.258;2023-02-01T04:17:40;101103.50;;;1.32;100.00
6565;BME280;3316;44.118;27.258;2023-02-01T04:20:06;101098.50;;;1.36;100.00
6565;BME280;3316;44.118;27.258;2023-02-01T04:22:32;101110.34;;;1.30;100.00
6565;BME280;3316;44.118;27.258;2023-02-01T04:24:57;101104.94;;;1.24;100.00
6565;BME280;3316;44.118;27.258;2023-02-01T04:27:22;101110.13;;;1.24;100.00
6565;BME280;3316;44.118;27.258;2023-02-01T04:29:48;101102.28;;;1.21;100.00
6565;BME280;3316;44.118;27.258;2023-02-01T04:32:17;101116.97;;;1.22;100.00
6565;BME280;3316;44.118;27.258;2023-02-01T04:34:42;101106.31;;;1.13;100.00
6565;BME280;3316;44.118;27.258;2023-02-01T04:37:08;101111.44;;;1.11;100.00
6565;BME280;3316;44.118;27.258;2023-02-01T04:39:33;101111.03;;;1.24;100.00
6565;BME280;3316;44.118;27.258;2023-02-01T04:41:59;101103.00;;;1.17;100.00
6565;BME280;3316;44.118;27.258;2023-02-01T04:44:24;101105.59;;;1.17;100.00
6565;BME280;3316;44.118;27.258;2023-02-01T04:46:50;101098.31;;;1.07;100.00
6565;BME280;3316;44.118;27.258;2023-02-01T04:49:15;101102.81;;;1.12;100.00
6565;BME280;3316;44.118;27.258;2023-02-01T04:51:41;101096.75;;;1.12;100.00
6565;BME280;3316;44.118;27.258;2023-02-01T04:54:07;101097.84;;;1.18;100.00
6565;BME280;3316;44.118;27.258;2023-02-01T04:56:32;101101.56;;;1.25;100.00
6565;BME280;3316;44.118;27.258;2023-02-01T04:59:00;101110.34;;;1.30;100.00
6565;BME280;3316;44.118;27.258;2023-02-01T05:01:25;101113.66;;;1.26;100.00
6565;BME280;3316;44.118;27.258;2023-02-01T05:03:51;101113.78;;;1.29;100.00
6565;BME280;3316;44.118;27.258;2023-02-01T05:06:16;101104.13;;;1.25;100.00
6565;BME280;3316;44.118;27.258;2023-02-01T05:08:42;101104.19;;;1.26;100.00
6565;BME280;3316;44.118;27.258;2023-02-01T05:11:08;101101.34;;;1.19;100.00
6565;BME280;3316;44.118;27.258;2023-02-01T05:13:53;101110.31;;;1.28;100.00
6565;BME280;3316;44.118;27.258;2023-02-01T05:16:19;101038.06;;;0.88;100.00
6565;BME280;3316;44.118;27.258;2023-02-01T05:18:44;101061.06;;;1.03;100.00
6565;BME280;3316;44.118;27.258;2023-02-01T05:21:09;101100.75;;;1.27;100.00
6565;BME280;3316;44.118;27.258;2023-02-01T05:23:35;101067.25;;;1.08;100.00
6565;BME280;3316;44.118;27.258;2023-02-01T05:26:20;101102.78;;;1.36;100.00
6565;BME280;3316;44.118;27.258;2023-02-01T05:28:46;101068.25;;;1.12;100.00
6565;BME280;3316;44.118;27.258;2023-02-01T05:31:11;101108.53;;;1.27;100.00
6565;BME280;3316;44.118;27.258;2023-02-01T05:33:37;101118.34;;;1.36;100.00
6565;BME280;3316;44.118;27.258;2023-02-01T05:36:02;101122.63;;;1.35;100.00
6565;BME280;3316;44.118;27.258;2023-02-01T05:38:28;101110.41;;;1.31;100.00
6565;BME280;3316;44.118;27.258;2023-02-01T05:40:55;101113.78;;;1.29;100.00
6565;BME280;3316;44.118;27.258;2023-02-01T05:43:20;101114.81;;;1.34;100.00
6565;BME280;3316;44.118;27.258;2023-02-01T05:45:46;101122.69;;;1.37;100.00
6565;BME280;3316;44.118;27.258;2023-02-01T05:48:11;101115.03;;;1.40;100.00
6565;BME280;3316;44.118;27.258;2023-02-01T05:50:37;101123.94;;;1.48;100.00
6565;BME280;3316;44.118;27.258;2023-02-01T05:53:02;101131.94;;;1.54;100.00
6565;BME280;3316;44.118;27.258;2023-02-01T05:55:28;101132.88;;;1.83;100.00
6565;BME280;3316;44.118;27.258;2023-02-01T05:57:53;101142.19;;;2.57;100.00
6565;BME280;3316;44.118;27.258;2023-02-01T06:00:19;101146.16;;;2.46;100.00
6565;BME280;3316;44.118;27.258;2023-02-01T06:02:44;101147.53;;;2.93;100.00
6565;BME280;3316;44.118;27.258;2023-02-01T06:05:10;101132.19;;;2.43;100.00
6565;BME280;3316;44.118;27.258;2023-02-01T06:07:35;101149.78;;;2.23;100.00
6565;BME280;3316;44.118;27.258;2023-02-01T06:10:01;101147.44;;;2.32;100.00
6565;BME280;3316;44.118;27.258;2023-02-01T06:12:26;101154.66;;;3.63;100.00
6565;BME280;3316;44.118;27.258;2023-02-01T06:14:53;101143.19;;;4.63;100.00
6565;BME280;3316;44.118;27.258;2023-02-01T06:17:18;101159.56;;;5.42;100.00
6565;BME280;3316;44.118;27.258;2023-02-01T06:19:44;101160.53;;;5.94;100.00
6565;BME280;3316;44.118;27.258;2023-02-01T06:22:10;101161.84;;;6.20;100.00
6565;BME280;3316;44.118;27.258;2023-02-01T06:24:35;101169.91;;;5.83;100.00
6565;BME280;3316;44.118;27.258;2023-02-01T06:27:01;101174.97;;;6.24;100.00
6565;BME280;3316;44.118;27.258;2023-02-01T06:29:26;101181.38;;;7.06;100.00
6565;BME280;3316;44.118;27.258;2023-02-01T06:31:52;101171.66;;;7.72;98.14
6565;BME280;3316;44.118;27.258;2023-02-01T06:34:17;101177.75;;;7.71;91.36
6565;BME280;3316;44.118;27.258;2023-02-01T06:36:43;101175.38;;;7.98;90.19
6565;BME280;3316;44.118;27.258;2023-02-01T06:39:08;101170.25;;;8.09;89.70
6565;BME280;3316;44.118;27.258;2023-02-01T06:41:34;101172.22;;;8.39;83.78
6565;BME280;3316;44.118;27.258;2023-02-01T06:44:00;101148.66;;;8.42;79.41
6565;BME280;3316;44.118;27.258;2023-02-01T06:46:25;101176.09;;;7.82;83.49
6565;BME280;3316;44.118;27.258;2023-02-01T06:48:51;101179.72;;;7.95;85.36
6565;BME280;3316;44.118;27.258;2023-02-01T06:51:26;101179.78;;;9.45;76.60
6565;BME280;3316;44.118;27.258;2023-02-01T06:53:55;101178.84;;;9.34;72.98
6565;BME280;3316;44.118;27.258;2023-02-01T06:56:21;101177.16;;;9.45;71.16
6565;BME280;3316;44.118;27.258;2023-02-01T06:58:47;101192.81;;;9.20;70.28
6565;BME280;3316;44.118;27.258;2023-02-01T07:01:13;101195.50;;;9.35;71.68
6565;BME280;3316;44.118;27.258;2023-02-01T07:03:39;101186.69;;;9.25;72.72
6565;BME280;3316;44.118;27.258;2023-02-01T07:06:05;101184.31;;;10.16;69.35
6565;BME280;3316;44.118;27.258;2023-02-01T07:08:33;101200.03;;;10.53;64.30
6565;BME280;3316;44.118;27.258;2023-02-01T07:11:04;101178.00;;;9.37;68.03
6565;BME280;3316;44.118;27.258;2023-02-01T07:13:30;101175.34;;;9.26;68.99
6565;BME280;3316;44.118;27.258;2023-02-01T07:15:58;101186.00;;;9.93;67.88
6565;BME280;3316;44.118;27.258;2023-02-01T07:18:23;101187.81;;;10.37;66.31
6565;BME280;3316;44.118;27.258;2023-02-01T07:20:50;101178.13;;;10.06;65.91
6565;BME280;3316;44.118;27.258;2023-02-01T07:23:16;101191.31;;;10.15;63.82
6565;BME280;3316;44.118;27.258;2023-02-01T07:25:41;101155.38;;;10.35;63.77
6565;BME280;3316;44.118;27.258;2023-02-01T07:28:06;101203.25;;;9.08;68.63
6565;BME280;3316;44.118;27.258;2023-02-01T07:30:32;101160.53;;;9.54;67.38
6565;BME280;3316;44.118;27.258;2023-02-01T07:32:57;101199.13;;;9.86;68.47
6565;BME280;3316;44.118;27.258;2023-02-01T07:35:29;101177.25;;;10.07;65.54
6565;BME280;3316;44.118;27.258;2023-02-01T07:37:57;101170.28;;;10.20;65.02
6565;BME280;3316;44.118;27.258;2023-02-01T07:40:22;101187.78;;;10.27;64.22
6565;BME280;3316;44.118;27.258;2023-02-01T07:42:54;101189.53;;;10.26;64.22
6565;BME280;3316;44.118;27.258;2023-02-01T07:45:20;101188.66;;;10.42;64.73
6565;BME280;3316;44.118;27.258;2023-02-01T07:47:45;101163.25;;;10.11;66.43
6565;BME280;3316;44.118;27.258;2023-02-01T07:50:11;101181.53;;;10.97;62.43
6565;BME280;3316;44.118;27.258;2023-02-01T07:52:36;101179.53;;;11.53;60.81
6565;BME280;3316;44.118;27.258;2023-02-01T07:55:01;101179.59;;;11.44;60.09
6565;BME280;3316;44.118;27.258;2023-02-01T07:57:27;101179.13;;;12.14;58.37
6565;BME280;3316;44.118;27.258;2023-02-01T07:59:52;101188.25;;;11.61;58.04
6565;BME280;3316;44.118;27.258;2023-02-01T08:02:41;101190.34;;;10.83;61.35
6565;BME280;3316;44.118;27.258;2023-02-01T08:05:07;101181.63;;;10.56;62.87
6565;BME280;3316;44.118;27.258;2023-02-01T08:07:32;101191.69;;;11.79;59.98
6565;BME280;3316;44.118;27.258;2023-02-01T08:09:58;101192.19;;;12.32;57.94
6565;BME280;3316;44.118;27.258;2023-02-01T08:12:23;101197.13;;;12.68;55.61
6565;BME280;3316;44.118;27.258;2023-02-01T08:14:49;101190.50;;;12.23;56.88
6565;BME280;3316;44.118;27.258;2023-02-01T08:17:14;101192.56;;;11.85;57.75
6565;BME280;3316;44.118;27.258;2023-02-01T08:19:39;101180.56;;;11.21;61.04
6565;BME280;3316;44.118;27.258;2023-02-01T08:22:05;101175.34;;;12.48;57.28
6565;BME280;3316;44.118;27.258;2023-02-01T08:24:33;101185.34;;;12.98;55.00
6565;BME280;3316;44.118;27.258;2023-02-01T08:27:01;101179.31;;;11.88;57.56
6565;BME280;3316;44.118;27.258;2023-02-01T08:29:26;101187.00;;;13.09;55.15
6565;BME280;3316;44.118;27.258;2023-02-01T08:31:52;101190.53;;;13.10;54.48
6565;BME280;3316;44.118;27.258;2023-02-01T08:34:18;101197.72;;;12.94;53.73
6565;BME280;3316;44.118;27.258;2023-02-01T08:36:43;101201.22;;;12.96;53.64
6565;BME280;3316;44.118;27.258;2023-02-01T08:39:10;101192.09;;;12.41;54.06
6565;BME280;3316;44.118;27.258;2023-02-01T08:41:36;101174.06;;;11.88;55.05
6565;BME280;3316;44.118;27.258;2023-02-01T08:44:02;101201.81;;;13.24;53.88
6565;BME280;3316;44.118;27.258;2023-02-01T08:46:28;101200.59;;;11.66;56.52
6565;BME280;3316;44.118;27.258;2023-02-01T08:48:53;101202.09;;;12.95;54.72
6565;BME280;3316;44.118;27.258;2023-02-01T08:51:21;101204.88;;;11.83;56.35
6565;BME280;3316;44.118;27.258;2023-02-01T08:53:47;101210.91;;;12.03;55.61
6565;BME280;3316;44.118;27.258;2023-02-01T08:56:14;101207.38;;;12.03;55.44
6565;BME280;3316;44.118;27.258;2023-02-01T08:58:40;101203.19;;;11.67;57.57
6565;BME280;3316;44.118;27.258;2023-02-01T09:01:11;101193.34;;;11.99;57.23
6565;BME280;3316;44.118;27.258;2023-02-01T09:03:44;101198.41;;;12.23;54.41
6565;BME280;3316;44.118;27.258;2023-02-01T09:06:11;101194.50;;;12.67;53.87
6565;BME280;3316;44.118;27.258;2023-02-01T09:08:38;101192.47;;;11.97;56.13
6565;BME280;3316;44.118;27.258;2023-02-01T09:11:07;101181.38;;;11.36;55.54
6565;BME280;3316;44.118;27.258;2023-02-01T09:13:33;101177.94;;;11.16;57.50
6565;BME280;3316;44.118;27.258;2023-02-01T09:15:59;101169.00;;;11.47;55.80
6565;BME280;3316;44.118;27.258;2023-02-01T09:18:25;101177.91;;;11.28;58.49
6565;BME280;3316;44.118;27.258;2023-02-01T09:20:51;101179.28;;;12.93;55.64
6565;BME280;3316;44.118;27.258;2023-02-01T09:23:17;101180.84;;;13.76;52.40
6565;BME280;3316;44.118;27.258;2023-02-01T09:25:43;101144.78;;;13.70;51.47
6565;BME280;3316;44.118;27.258;2023-02-01T09:28:09;101169.78;;;11.69;54.29
6565;BME280;3316;44.118;27.258;2023-02-01T09:30:35;101164.63;;;11.45;57.86
6565;BME280;3316;44.118;27.258;2023-02-01T09:33:02;101159.59;;;12.37;55.36
6565;BME280;3316;44.118;27.258;2023-02-01T09:35:27;101143.66;;;12.46;55.00
6565;BME280;3316;44.118;27.258;2023-02-01T09:37:53;101153.00;;;11.85;57.06
6565;BME280;3316;44.118;27.258;2023-02-01T09:40:18;101155.72;;;12.73;54.41
6565;BME280;3316;44.118;27.258;2023-02-01T09:42:52;101148.78;;;13.37;53.83
6565;BME280;3316;44.118;27.258;2023-02-01T09:48:15;101155.91;;;13.31;52.99
6565;BME280;3316;44.118;27.258;2023-02-01T09:50:45;101053.31;;;12.96;52.09
6565;BME280;3316;44.118;27.258;2023-02-01T09:53:29;101155.22;;;14.34;50.37
6565;BME280;3316;44.118;27.258;2023-02-01T09:56:05;101151.66;;;13.82;50.40
6565;BME280;3316;44.118;27.258;2023-02-01T10:00:59;101132.28;;;13.19;50.29
6565;BME280;3316;44.118;27.258;2023-02-01T10:03:28;101130.50;;;13.21;51.21
6565;BME280;3316;44.118;27.258;2023-02-01T10:17:16;101127.94;;;11.13;58.23
6565;BME280;3316;44.118;27.258;2023-02-01T10:25:21;101118.69;;;12.76;52.58
6565;BME280;3316;44.118;27.258;2023-02-01T10:27:48;101130.56;;;12.37;53.36
6565;BME280;3316;44.118;27.258;2023-02-01T10:32:40;101118.00;;;11.57;57.20
6565;BME280;3316;44.118;27.258;2023-02-01T10:35:24;101112.47;;;11.97;56.12
6565;BME280;3316;44.118;27.258;2023-02-01T10:37:52;101116.78;;;10.06;60.74
6565;BME280;3316;44.118;27.258;2023-02-01T10:40:23;101105.19;;;8.92;70.79
6565;BME280;3316;44.118;27.258;2023-02-01T10:42:51;101083.38;;;9.02;76.10
6565;BME280;3316;44.118;27.258;2023-02-01T10:45:19;101096.59;;;9.52;72.82
6565;BME280;3316;44.118;27.258;2023-02-01T10:47:47;101103.50;;;9.05;73.44
6565;BME280;3316;44.118;27.258;2023-02-01T10:53:18;101088.84;;;7.94;82.60
6565;BME280;3316;44.118;27.258;2023-02-01T10:55:49;101093.41;;;8.15;90.18
6565;BME280;3316;44.118;27.258;2023-02-01T10:58:33;101092.13;;;7.64;98.59
6565;BME280;3316;44.118;27.258;2023-02-01T11:01:09;101084.94;;;7.44;100.00
6565;BME280;3316;44.118;27.258;2023-02-01T11:03:45;101083.56;;;6.95;100.00
6565;BME280;3316;44.118;27.258;2023-02-01T11:08:53;101088.38;;;6.63;100.00
6565;BME280;3316;44.118;27.258;2023-02-01T11:11:20;101094.50;;;6.64;100.00
6565;BME280;3316;44.118;27.258;2023-02-01T11:13:53;101084.94;;;6.66;100.00
6565;BME280;3316;44.118;27.258;2023-02-01T11:16:19;101088.69;;;6.86;100.00
6565;BME280;3316;44.118;27.258;2023-02-01T11:18:45;101070.19;;;7.53;100.00
6565;BME280;3316;44.118;27.258;2023-02-01T11:21:14;101077.63;;;8.11;97.98
6565;BME280;3316;44.118;27.258;2023-02-01T11:23:42;101070.66;;;8.09;98.66
6565;BME280;3316;44.118;27.258;2023-02-01T11:26:35;101026.81;;;7.87;98.59
6565;BME280;3316;44.118;27.258;2023-02-01T11:29:11;101056.97;;;7.37;99.27
6565;BME280;3316;44.118;27.258;2023-02-01T11:31:38;101052.13;;;6.90;100.00
6565;BME280;3316;44.118;27.258;2023-02-01T11:34:08;101063.22;;;6.71;100.00
6565;BME280;3316;44.118;27.258;2023-02-01T11:36:36;100996.03;;;5.97;100.00
6565;BME280;3316;44.118;27.258;2023-02-01T11:41:44;101067.50;;;6.02;100.00
6565;BME280;3316;44.118;27.258;2023-02-01T11:44:30;101043.91;;;5.96;100.00
6565;BME280;3316;44.118;27.258;2023-02-01T11:47:18;101037.28;;;6.19;100.00
6565;BME280;3316;44.118;27.258;2023-02-01T11:49:43;101040.69;;;6.15;100.00
6565;BME280;3316;44.118;27.258;2023-02-01T11:57:40;101036.47;;;6.24;100.00
6565;BME280;3316;44.118;27.258;2023-02-01T12:03:43;101028.00;;;5.82;100.00
6565;BME280;3316;44.118;27.258;2023-02-01T12:08:57;101022.91;;;5.88;100.00
6565;BME280;3316;44.118;27.258;2023-02-01T12:11:43;101011.78;;;6.01;100.00
6565;BME280;3316;44.118;27.258;2023-02-01T12:28:29;101003.97;;;6.72;100.00
6565;BME280;3316;44.118;27.258;2023-02-01T12:39:38;101011.66;;;5.92;100.00
6565;BME280;3316;44.118;27.258;2023-02-01T12:42:22;101016.88;;;5.91;100.00
6565;BME280;3316;44.118;27.258;2023-02-01T12:48:11;101005.22;;;5.72;100.00
6565;BME280;3316;44.118;27.258;2023-02-01T12:50:48;100998.31;;;5.76;100.00
6565;BME280;3316;44.118;27.258;2023-02-01T12:53:23;100995.59;;;5.70;100.00
6565;BME280;3316;44.118;27.258;2023-02-01T12:55:53;100994.91;;;5.81;100.00
6565;BME280;3316;44.118;27.258;2023-02-01T13:01:02;100989.66;;;5.80;100.00
6565;BME280;3316;44.118;27.258;2023-02-01T13:03:49;100991.69;;;5.97;100.00
6565;BME280;3316;44.118;27.258;2023-02-01T13:06:19;100966.47;;;5.99;100.00
6565;BME280;3316;44.118;27.258;2023-02-01T13:12:07;100964.56;;;6.55;100.00
6565;BME280;3316;44.118;27.258;2023-02-01T13:14:48;100980.25;;;6.57;100.00
6565;BME280;3316;44.118;27.258;2023-02-01T13:17:22;100992.31;;;6.46;100.00
6565;BME280;3316;44.118;27.258;2023-02-01T13:20:20;100992.38;;;6.49;100.00
6565;BME280;3316;44.118;27.258;2023-02-01T13:22:53;100982.81;;;6.52;100.00
6565;BME280;3316;44.118;27.258;2023-02-01T13:27:54;100986.34;;;6.56;100.00
6565;BME280;3316;44.118;27.258;2023-02-01T13:30:28;100995.97;;;6.60;100.00
6565;BME280;3316;44.118;27.258;2023-02-01T13:41:29;101001.03;;;6.46;100.00
6565;BME280;3316;44.118;27.258;2023-02-01T13:44:16;100999.41;;;6.54;100.00
6565;BME280;3316;44.118;27.258;2023-02-01T13:46:47;100981.00;;;6.45;100.00
6565;BME280;3316;44.118;27.258;2023-02-01T13:49:36;100979.19;;;6.40;100.00
6565;BME280;3316;44.118;27.258;2023-02-01T13:52:03;100997.59;;;6.47;100.00
6565;BME280;3316;44.118;27.258;2023-02-01T13:54:36;100995.81;;;6.45;100.00
6565;BME280;3316;44.118;27.258;2023-02-01T13:57:03;100995.78;;;6.43;100.00
6565;BME280;3316;44.118;27.258;2023-02-01T14:10:50;100987.81;;;6.32;100.00
6565;BME280;3316;44.118;27.258;2023-02-01T14:21:19;100980.63;;;6.16;100.00
6565;BME280;3316;44.118;27.258;2023-02-01T14:34:24;100987.53;;;6.10;100.00
6565;BME280;3316;44.118;27.258;2023-02-01T14:44:51;100979.72;;;6.13;100.00
6565;BME280;3316;44.118;27.258;2023-02-01T14:50:12;100991.88;;;6.11;100.00
6565;BME280;3316;44.118;27.258;2023-02-01T14:52:58;100952.34;;;5.85;100.00
6565;BME280;3316;44.118;27.258;2023-02-01T15:01:29;100981.94;;;5.86;100.00
6565;BME280;3316;44.118;27.258;2023-02-01T15:09:14;100978.13;;;5.66;100.00
6565;BME280;3316;44.118;27.258;2023-02-01T15:15:15;100985.72;;;5.49;100.00
6565;BME280;3316;44.118;27.258;2023-02-01T15:17:51;100986.41;;;5.37;100.00
6565;BME280;3316;44.118;27.258;2023-02-01T15:20:25;100981.00;;;5.27;100.00
6565;BME280;3316;44.118;27.258;2023-02-01T15:25:21;100982.69;;;5.23;100.00
6565;BME280;3316;44.118;27.258;2023-02-01T15:27:47;100965.97;;;5.11;100.00
6565;BME280;3316;44.118;27.258;2023-02-01T15:30:22;100975.56;;;5.13;100.00
6565;BME280;3316;44.118;27.258;2023-02-01T15:32:49;100982.38;;;5.05;100.00
6565;BME280;3316;44.118;27.258;2023-02-01T15:35:47;100983.25;;;5.06;100.00
6565;BME280;3316;44.118;27.258;2023-02-01T15:41:01;100990.84;;;4.94;100.00
6565;BME280;3316;44.118;27.258;2023-02-01T15:43:30;100980.25;;;4.83;100.00
6565;BME280;3316;44.118;27.258;2023-02-01T15:45:59;100994.97;;;4.80;100.00
6565;BME280;3316;44.118;27.258;2023-02-01T15:48:27;100994.97;;;4.80;100.00
6565;BME280;3316;44.118;27.258;2023-02-01T15:50:54;100944.97;;;4.56;100.00
6565;BME280;3316;44.118;27.258;2023-02-01T15:53:24;100985.44;;;4.82;100.00
6565;BME280;3316;44.118;27.258;2023-02-01T15:55:56;100982.63;;;4.71;100.00
6565;BME280;3316;44.118;27.258;2023-02-01T15:58:23;100989.75;;;4.80;100.00
6565;BME280;3316;44.118;27.258;2023-02-01T16:01:04;100993.22;;;4.80;100.00
6565;BME280;3316;44.118;27.258;2023-02-01T16:03:43;100990.44;;;4.70;100.00
6565;BME280;3316;44.118;27.258;2023-02-01T16:06:27;100982.59;;;4.70;100.00
6565;BME280;3316;44.118;27.258;2023-02-01T16:09:02;100987.84;;;4.73;100.00
6565;BME280;3316;44.118;27.258;2023-02-01T16:11:31;100971.16;;;4.62;100.00